^^
Paulen-Weather Station Historical Data
Daily Summary for July 09, 2022 Units:  Metric    English   Both
Daily Weekly Monthly Yearly Custom
  High: Low: Average:
Temperature: 15 °C 14 °C 14.5 °C
Dew Point: 12 °C 11 °C 11.5 °C
Humidity: 84% 81% 83%
Wind Speed: 17km/h 6km/h 10.9km/h
Wind Gust: 12km/h - -
Wind- - WSW
Pressure: 1019.07 hPa 1018.12 hPa -
Precipitation: 0 mm    
Historical Graphs
 
 
Tabular Data for July 09, 2022
Time Temperature Dew Point Pressure Wind Wind Speed Wind Gust Humidity Rainfall Rate (Hourly) solar
00:04 15 °C 12 °C 1019.07 hPa W 12 km/h 7 km/h 83% 0 mm 0 W/m2
00:09 15 °C 12 °C 1018.93 hPa WSW 11 km/h 9 km/h 83% 0 mm 0 W/m2
00:14 15 °C 12 °C 1018.8 hPa SW 7 km/h 7 km/h 83% 0 mm 0 W/m2
00:19 15 °C 12 °C 1018.76 hPa SW 10 km/h 7 km/h 84% 0 mm 0 W/m2
00:24 15 °C 12 °C 1018.69 hPa SW 10 km/h 7 km/h 84% 0 mm 0 W/m2
00:29 15 °C 12 °C 1018.59 hPa WSW 12 km/h 9 km/h 84% 0 mm 0 W/m2
00:34 15 °C 12 °C 1018.52 hPa W 14 km/h 10 km/h 84% 0 mm 0 W/m2
00:39 15 °C 12 °C 1018.46 hPa WSW 12 km/h 9 km/h 84% 0 mm 0 W/m2
00:44 15 °C 12 °C 1018.39 hPa NNE 9 km/h 8 km/h 84% 0 mm 0 W/m2
00:49 15 °C 12 °C 1018.39 hPa WSW 14 km/h 10 km/h 84% 0 mm 0 W/m2
00:54 15 °C 12 °C 1018.35 hPa W 12 km/h 10 km/h 84% 0 mm 0 W/m2
00:59 15 °C 12 °C 1018.46 hPa W 12 km/h 9 km/h 84% 0 mm 0 W/m2
01:04 15 °C 12 °C 1018.42 hPa WSW 12 km/h 8 km/h 84% 0 mm 0 W/m2
01:09 15 °C 12 °C 1018.35 hPa WSW 12 km/h 10 km/h 83% 0 mm 0 W/m2
01:14 15 °C 12 °C 1018.32 hPa W 13 km/h 10 km/h 83% 0 mm 0 W/m2
01:19 15 °C 12 °C 1018.25 hPa WSW 8 km/h 6 km/h 83% 0 mm 0 W/m2
01:24 15 °C 12 °C 1018.25 hPa W 12 km/h 7 km/h 82% 0 mm 0 W/m2
01:29 15 °C 11 °C 1018.25 hPa W 11 km/h 10 km/h 82% 0 mm 0 W/m2
01:34 14 °C 11 °C 1018.22 hPa WSW 12 km/h 9 km/h 82% 0 mm 0 W/m2
01:39 14 °C 11 °C 1018.22 hPa WSW 11 km/h 7 km/h 81% 0 mm 0 W/m2
01:44 14 °C 11 °C 1018.29 hPa WSW 9 km/h 7 km/h 81% 0 mm 0 W/m2
01:49 14 °C 11 °C 1018.29 hPa WSW 7 km/h 5 km/h 81% 0 mm 0 W/m2
01:54 14 °C 11 °C 1018.32 hPa WSW 14 km/h 12 km/h 81% 0 mm 0 W/m2
01:59 14 °C 11 °C 1018.35 hPa WSW 17 km/h 12 km/h 81% 0 mm 0 W/m2
02:04 14 °C 11 °C 1018.39 hPa W 10 km/h 8 km/h 81% 0 mm 0 W/m2
02:09 14 °C 11 °C 1018.39 hPa W 12 km/h 10 km/h 81% 0 mm 0 W/m2
02:14 14 °C 11 °C 1018.35 hPa WSW 6 km/h 5 km/h 81% 0 mm 0 W/m2
02:19 14 °C 11 °C 1018.39 hPa WSW 10 km/h 7 km/h 81% 0 mm 0 W/m2
02:24 14 °C 11 °C 1018.39 hPa W 8 km/h 5 km/h 81% 0 mm 0 W/m2
02:29 14 °C 11 °C 1018.32 hPa SW 11 km/h 9 km/h 81% 0 mm 0 W/m2
02:34 14 °C 11 °C 1018.22 hPa WSW 12 km/h 9 km/h 82% 0 mm 0 W/m2
02:39 14 °C 11 °C 1018.15 hPa SW 10 km/h 9 km/h 82% 0 mm 0 W/m2
02:44 14 °C 11 °C 1018.12 hPa SW 9 km/h 8 km/h 83% 0 mm 0 W/m2
02:49 14 °C 11 °C 1018.19 hPa SW 10 km/h 7 km/h 83% 0 mm 0 W/m2
Compliments of Weather Underground - 2 mb